createdAt,value
2023-03-25T00:01:17.304Z,65.74
2023-03-25T00:03:19.784Z,66.37
2023-03-25T00:05:22.191Z,66.12
2023-03-25T00:07:24.032Z,66.66
2023-03-25T00:09:25.711Z,65.78
2023-03-25T00:11:28.761Z,66.38
2023-03-25T00:13:30.656Z,66.36
2023-03-25T00:15:32.718Z,66.44
2023-03-25T00:17:34.442Z,66.52
2023-03-25T00:19:36.688Z,66.71
2023-03-25T00:21:38.538Z,66.91
2023-03-25T00:23:41.343Z,66.80
2023-03-25T00:25:42.938Z,67.23
2023-03-25T00:27:46.483Z,67.30
2023-03-25T00:29:48.732Z,66.76
2023-03-25T00:31:50.742Z,67.70
2023-03-25T00:33:52.878Z,67.63
2023-03-25T00:35:55.319Z,67.42
2023-03-25T00:37:57.105Z,67.38
2023-03-25T00:39:58.632Z,68.03
2023-03-25T00:42:00.290Z,68.11
2023-03-25T00:44:04.763Z,68.11
2023-03-25T00:46:06.871Z,67.84
2023-03-25T00:48:08.903Z,67.93
2023-03-25T00:50:11.706Z,68.40
2023-03-25T00:52:13.492Z,68.12
2023-03-25T00:54:15.323Z,68.65
2023-03-25T00:56:17.762Z,68.91
2023-03-25T00:58:19.600Z,68.82
2023-03-25T01:00:22.509Z,68.52
2023-03-25T01:02:24.591Z,68.19
2023-03-25T01:04:26.294Z,68.46
2023-03-25T01:06:32.186Z,69.19
2023-03-25T01:08:34.775Z,68.82
2023-03-25T01:10:36.957Z,68.68
2023-03-25T01:12:39.196Z,69.07
2023-03-25T01:14:41.025Z,68.79
2023-03-25T01:16:44.129Z,69.38
2023-03-25T01:18:45.780Z,69.51
2023-03-25T01:20:47.818Z,69.34
2023-03-25T01:22:49.653Z,69.54
2023-03-25T01:24:51.268Z,70.09
2023-03-25T01:26:52.995Z,69.51
2023-03-25T01:28:55.051Z,70.14
2023-03-25T01:31:00.711Z,69.50
2023-03-25T01:33:04.265Z,69.80
2023-03-25T01:35:06.850Z,69.69
2023-03-25T01:37:08.948Z,70.25
2023-03-25T01:39:10.785Z,69.43
2023-03-25T01:41:12.732Z,69.80
2023-03-25T01:43:14.586Z,69.99
2023-03-25T01:45:21.261Z,69.46
2023-03-25T01:47:23.059Z,69.58
2023-03-25T01:49:31.488Z,69.66
2023-03-25T01:51:37.076Z,69.62
2023-03-25T01:53:42.214Z,69.47
2023-03-25T01:55:45.223Z,69.91
2023-03-25T01:57:48.390Z,70.09
2023-03-25T01:59:52.080Z,69.95
2023-03-25T02:01:56.274Z,70.22
2023-03-25T02:03:59.660Z,70.73
2023-03-25T02:06:07.562Z,70.13
2023-03-25T02:08:09.360Z,70.23
2023-03-25T02:10:11.915Z,71.11
2023-03-25T02:12:13.895Z,71.42
2023-03-25T02:14:20.210Z,70.79
2023-03-25T02:16:29.921Z,70.28
2023-03-25T02:18:46.252Z,71.09
2023-03-25T02:21:35.718Z,70.53
2023-03-25T02:24:03.170Z,70.99
2023-03-25T02:26:39.925Z,70.37
2023-03-25T02:28:47.492Z,71.68
2023-03-25T02:31:09.088Z,71.29
2023-03-25T02:33:37.448Z,70.40
2023-03-25T02:35:53.637Z,71.61
2023-03-25T02:40:46.337Z,73.77
2023-03-25T02:42:53.157Z,73.33
2023-03-25T02:45:00.215Z,73.51
2023-03-25T02:47:05.943Z,73.11
2023-03-25T02:49:11.894Z,73.35
2023-03-25T02:51:21.646Z,75.08
2023-03-25T02:53:27.982Z,74.21
2023-03-25T02:55:31.304Z,74.59
2023-03-25T02:57:38.860Z,75.20
2023-03-25T02:59:42.417Z,74.52
2023-03-25T03:01:44.015Z,74.92
2023-03-25T03:03:47.813Z,75.13
2023-03-25T03:05:52.609Z,75.41
2023-03-25T03:08:08.230Z,75.07
2023-03-25T03:10:20.492Z,74.87
2023-03-25T03:12:41.710Z,73.57
2023-03-25T03:15:00.566Z,73.51
2023-03-25T03:17:14.057Z,74.43
2023-03-25T03:19:28.891Z,74.31
2023-03-25T03:21:39.686Z,74.76
2023-03-25T03:23:51.849Z,74.06
2023-03-25T03:25:56.401Z,75.21
2023-03-25T03:28:05.648Z,74.32
2023-03-25T03:30:13.546Z,74.33
2023-03-25T03:32:21.512Z,74.97
2023-03-25T03:34:30.107Z,75.11
2023-03-25T03:36:41.996Z,74.59
2023-03-25T03:38:49.122Z,74.44
2023-03-25T03:40:55.893Z,74.79
2023-03-25T03:43:03.484Z,74.29
2023-03-25T03:45:10.456Z,74.77
2023-03-25T03:47:15.435Z,74.11
2023-03-25T03:49:21.086Z,74.84
2023-03-25T03:51:30.212Z,74.81
2023-03-25T03:53:36.884Z,74.74
2023-03-25T03:55:43.701Z,74.96
2023-03-25T03:57:49.538Z,74.58
2023-03-25T03:59:58.872Z,74.87
2023-03-25T04:02:05.125Z,74.74
2023-03-25T04:04:10.980Z,74.39
2023-03-25T04:06:21.982Z,74.79
2023-03-25T04:08:31.629Z,74.00
2023-03-25T04:10:40.914Z,74.33
2023-03-25T04:12:48.268Z,74.85
2023-03-25T04:14:50.017Z,75.28
2023-03-25T04:16:55.174Z,74.75
2023-03-25T04:18:56.813Z,74.73
2023-03-25T04:20:58.707Z,75.04
2023-03-25T04:23:02.937Z,74.87
2023-03-25T04:25:06.152Z,74.89
2023-03-25T04:27:09.265Z,74.77
2023-03-25T04:29:11.882Z,74.63
2023-03-25T04:31:15.246Z,75.14
2023-03-25T04:33:18.296Z,75.05
2023-03-25T04:35:20.930Z,75.19
2023-03-25T04:40:22.904Z,75.11
2023-03-25T04:42:24.955Z,75.25
2023-03-25T04:44:26.809Z,75.75
2023-03-25T04:46:28.921Z,75.19
2023-03-25T04:48:35.884Z,75.42
2023-03-25T04:50:38.114Z,75.57
2023-03-25T04:52:39.875Z,75.37
2023-03-25T04:54:42.064Z,75.04
2023-03-25T04:56:43.898Z,74.64
2023-03-25T04:58:46.631Z,74.94
2023-03-25T05:00:51.988Z,75.08
2023-03-25T05:02:57.635Z,75.54
2023-03-25T05:05:00.874Z,75.21
2023-03-25T05:07:02.710Z,75.47
2023-03-25T05:09:05.876Z,75.25
2023-03-25T05:11:09.696Z,75.35
2023-03-25T05:13:11.669Z,75.28
2023-03-25T05:15:14.264Z,75.24
2023-03-25T05:17:16.059Z,75.20
2023-03-25T05:19:18.337Z,74.59
2023-03-25T05:21:21.921Z,75.17
2023-03-25T05:23:23.644Z,75.27
2023-03-25T05:25:26.554Z,74.99
2023-03-25T05:27:29.291Z,74.68
2023-03-25T05:29:32.581Z,74.41
2023-03-25T05:31:35.526Z,74.78
2023-03-25T05:33:49.457Z,74.82
2023-03-25T05:35:53.024Z,74.20
2023-03-25T05:37:59.525Z,74.90
2023-03-25T05:40:02.077Z,74.73
2023-03-25T05:42:05.892Z,74.42
2023-03-25T05:44:09.470Z,74.52
2023-03-25T05:46:11.526Z,74.21
2023-03-25T05:48:15.880Z,74.86
2023-03-25T05:50:17.958Z,73.86
2023-03-25T05:52:20.394Z,74.59
2023-03-25T05:54:23.632Z,74.09
2023-03-25T05:56:25.552Z,74.16
2023-03-25T05:58:27.386Z,73.67
2023-03-25T06:00:29.654Z,73.80
2023-03-25T06:02:32.001Z,74.03
2023-03-25T06:04:35.709Z,73.68
2023-03-25T06:06:37.377Z,74.11
2023-03-25T06:08:39.631Z,73.79
2023-03-25T06:10:43.349Z,74.35
2023-03-25T06:12:45.921Z,73.82
2023-03-25T06:14:48.748Z,73.83
2023-03-25T06:16:50.505Z,73.66
2023-03-25T06:18:52.527Z,73.49
2023-03-25T06:20:54.618Z,73.74
2023-03-25T06:22:56.661Z,73.47
2023-03-25T06:24:58.680Z,73.34
2023-03-25T06:27:01.999Z,73.69
2023-03-25T06:29:04.033Z,73.48
2023-03-25T06:31:11.899Z,73.34
2023-03-25T06:33:14.131Z,73.35
2023-03-25T06:35:36.115Z,73.27
2023-03-25T06:37:39.208Z,73.02
2023-03-25T06:39:41.228Z,73.32
2023-03-25T06:41:43.023Z,73.41
2023-03-25T06:43:47.290Z,72.69
2023-03-25T06:45:51.173Z,73.31
2023-03-25T06:47:53.005Z,72.79
2023-03-25T06:49:56.105Z,73.27
2023-03-25T06:51:57.868Z,72.95
2023-03-25T06:54:00.356Z,72.50
2023-03-25T06:56:02.279Z,72.58
2023-03-25T06:58:04.908Z,72.68
2023-03-25T07:00:11.661Z,72.63
2023-03-25T07:02:15.915Z,72.31
2023-03-25T07:04:19.143Z,72.66
2023-03-25T07:06:23.289Z,71.99
2023-03-25T07:08:25.087Z,72.12
2023-03-25T07:10:28.259Z,71.71
2023-03-25T07:12:30.008Z,71.67
2023-03-25T07:14:31.819Z,71.73
2023-03-25T07:16:36.624Z,71.03
2023-03-25T07:18:43.235Z,71.09
2023-03-25T07:20:46.717Z,71.26
2023-03-25T07:22:48.848Z,71.12
2023-03-25T07:24:51.710Z,71.30
2023-03-25T07:26:54.285Z,71.83
2023-03-25T07:28:55.990Z,70.72
2023-03-25T07:30:58.455Z,71.14
2023-03-25T07:33:01.937Z,70.95
2023-03-25T07:35:04.169Z,70.35
2023-03-25T07:37:06.019Z,70.59
2023-03-25T07:39:10.728Z,69.61
2023-03-25T07:41:13.548Z,69.58
2023-03-25T07:43:15.741Z,69.15
2023-03-25T07:45:17.668Z,69.55
2023-03-25T07:47:19.416Z,68.38
2023-03-25T07:49:24.949Z,68.45
2023-03-25T07:51:27.318Z,67.99
2023-03-25T07:53:36.462Z,67.90
2023-03-25T07:55:48.913Z,68.05
2023-03-25T07:57:58.468Z,67.90
2023-03-25T08:02:43.523Z,67.67
2023-03-25T08:07:39.781Z,67.78
2023-03-25T08:09:46.738Z,67.67
2023-03-25T08:14:26.831Z,67.35
2023-03-25T08:16:30.209Z,67.75
2023-03-25T08:18:48.476Z,67.49
2023-03-25T08:21:07.967Z,67.76
2023-03-25T08:23:25.914Z,67.69
2023-03-25T08:25:27.862Z,67.53
2023-03-25T08:27:29.494Z,67.05
2023-03-25T08:29:31.735Z,67.40
2023-03-25T08:31:33.743Z,66.89
2023-03-25T08:33:35.582Z,66.62
2023-03-25T08:35:38.915Z,65.63
2023-03-25T08:37:42.338Z,65.71
2023-03-25T08:39:44.405Z,66.63
2023-03-25T08:41:46.450Z,65.49
2023-03-25T08:43:49.969Z,65.15
2023-03-25T08:45:52.583Z,64.82
2023-03-25T08:47:55.035Z,64.68
2023-03-25T08:49:59.915Z,64.12
2023-03-25T08:52:07.108Z,65.58
2023-03-25T08:54:14.246Z,65.87
2023-03-25T08:56:25.376Z,66.29
2023-03-25T08:58:30.386Z,66.65
2023-03-25T09:00:32.483Z,65.78
2023-03-25T09:02:35.674Z,65.89
2023-03-25T09:04:37.888Z,65.68
2023-03-25T09:06:47.502Z,65.88
2023-03-25T09:09:02.514Z,65.53
2023-03-25T09:11:06.359Z,64.70
2023-03-25T09:13:08.583Z,64.37
2023-03-25T09:15:12.720Z,64.06
2023-03-25T09:17:16.330Z,64.94
2023-03-25T09:19:21.203Z,64.85
2023-03-25T09:21:25.512Z,64.91
2023-03-25T09:23:27.924Z,65.05
2023-03-25T09:25:30.085Z,65.17
2023-03-25T09:27:33.429Z,65.10
2023-03-25T09:29:35.491Z,63.83
2023-03-25T09:31:41.828Z,63.95
2023-03-25T09:33:44.396Z,64.15
2023-03-25T09:35:46.618Z,64.97
2023-03-25T09:37:52.130Z,65.78
2023-03-25T09:39:57.181Z,65.05
2023-03-25T09:42:27.228Z,65.92
2023-03-25T09:44:35.890Z,65.35
2023-03-25T09:46:38.868Z,64.66
2023-03-25T09:48:45.032Z,64.37
2023-03-25T09:50:48.437Z,64.87
2023-03-25T09:52:55.778Z,65.41
2023-03-25T09:55:03.257Z,64.17
2023-03-25T09:57:14.814Z,65.05
2023-03-25T09:59:20.221Z,64.56
2023-03-25T10:01:35.797Z,63.96
2023-03-25T10:03:49.022Z,63.75
2023-03-25T10:06:12.026Z,63.85
2023-03-25T10:08:25.460Z,63.55
2023-03-25T10:10:32.787Z,63.01
2023-03-25T10:12:42.684Z,63.34
2023-03-25T10:14:59.559Z,62.71
2023-03-25T10:17:17.570Z,62.50
2023-03-25T10:19:40.159Z,62.86
2023-03-25T10:21:48.128Z,61.80
2023-03-25T10:24:02.894Z,61.31
2023-03-25T10:26:16.721Z,59.74
2023-03-25T10:28:20.534Z,58.77
2023-03-25T10:30:25.133Z,59.52
2023-03-25T10:32:36.980Z,60.32
2023-03-25T10:34:44.366Z,60.56
2023-03-25T10:36:49.744Z,61.50
2023-03-25T10:38:54.076Z,62.04
2023-03-25T10:41:05.340Z,61.45
2023-03-25T10:43:22.089Z,62.87
2023-03-25T10:45:33.135Z,63.56
2023-03-25T10:47:44.849Z,63.88
2023-03-25T10:49:51.782Z,64.37
2023-03-25T10:51:54.543Z,63.69
2023-03-25T10:53:57.968Z,64.63
2023-03-25T10:56:13.133Z,64.81
2023-03-25T10:58:20.754Z,65.86
2023-03-25T11:00:26.560Z,65.58
2023-03-25T11:02:33.456Z,65.77
2023-03-25T11:04:56.754Z,65.76
2023-03-25T11:07:00.925Z,66.45
2023-03-25T11:09:24.289Z,66.27
2023-03-25T11:14:17.965Z,69.58
2023-03-25T11:18:50.026Z,68.16
2023-03-25T11:23:36.327Z,68.30
2023-03-25T11:25:42.101Z,65.47
2023-03-25T11:30:26.538Z,65.76
2023-03-25T11:32:35.179Z,64.63
2023-03-25T11:34:38.303Z,63.59
2023-03-25T11:36:48.997Z,64.61
2023-03-25T11:38:58.635Z,64.24
2023-03-25T11:41:00.375Z,63.89
2023-03-25T11:43:02.386Z,61.50
2023-03-25T11:45:05.474Z,60.87
2023-03-25T11:47:10.684Z,60.12
2023-03-25T11:49:18.739Z,58.98
2023-03-25T11:51:22.823Z,60.00
2023-03-25T11:53:28.268Z,60.41
2023-03-25T11:55:32.896Z,59.19
2023-03-25T11:57:40.070Z,61.21
2023-03-25T11:59:45.865Z,60.18
2023-03-25T12:01:49.512Z,61.23
2023-03-25T12:03:51.263Z,60.53
2023-03-25T12:06:03.847Z,60.82
2023-03-25T12:08:13.130Z,60.81
2023-03-25T12:10:28.271Z,61.13
2023-03-25T12:12:38.928Z,60.82
2023-03-25T12:14:55.839Z,59.96
2023-03-25T12:17:05.993Z,59.27
2023-03-25T12:19:20.775Z,58.26
2023-03-25T12:21:39.408Z,59.03
2023-03-25T12:23:52.043Z,59.15
2023-03-25T12:26:06.959Z,58.92
2023-03-25T12:28:36.946Z,58.80
2023-03-25T12:30:53.117Z,57.62
2023-03-25T12:33:03.903Z,57.23
2023-03-25T12:35:28.886Z,56.55
2023-03-25T12:37:39.458Z,53.54
2023-03-25T12:40:03.384Z,55.44
2023-03-25T12:42:18.344Z,53.46
2023-03-25T12:44:34.691Z,54.45
2023-03-25T12:47:04.233Z,55.05
2023-03-25T12:49:26.917Z,54.92
2023-03-25T12:51:42.384Z,56.24
2023-03-25T12:53:57.885Z,56.25
2023-03-25T12:56:13.400Z,57.02
2023-03-25T12:58:36.258Z,57.27
2023-03-25T13:00:47.563Z,57.51
2023-03-25T13:03:27.276Z,56.73
2023-03-25T13:05:37.907Z,55.31
2023-03-25T13:07:44.860Z,54.68
2023-03-25T13:09:57.500Z,53.25
2023-03-25T13:12:03.819Z,52.59
2023-03-25T13:14:15.341Z,52.08
2023-03-25T13:16:20.599Z,52.62
2023-03-25T13:18:27.782Z,53.55
2023-03-25T13:20:34.754Z,54.23
2023-03-25T13:22:40.745Z,55.58
2023-03-25T13:24:47.336Z,56.47
2023-03-25T13:26:51.858Z,57.06
2023-03-25T13:28:57.140Z,58.34
2023-03-25T13:31:02.673Z,59.27
2023-03-25T13:33:11.594Z,59.37
2023-03-25T13:35:17.972Z,60.49
2023-03-25T13:37:24.457Z,60.81
2023-03-25T13:39:32.603Z,61.85
2023-03-25T13:41:39.598Z,62.58
2023-03-25T13:43:49.512Z,62.82
2023-03-25T13:45:58.480Z,63.28
2023-03-25T13:48:11.891Z,62.97
2023-03-25T13:50:20.522Z,63.91
2023-03-25T13:52:26.536Z,63.64
2023-03-25T13:54:35.894Z,64.21
2023-03-25T13:57:01.745Z,64.21
2023-03-25T13:59:28.590Z,64.77
2023-03-25T14:01:48.621Z,65.28
2023-03-25T14:04:08.831Z,64.78
2023-03-25T14:06:53.122Z,65.23
2023-03-25T14:09:30.075Z,65.36
2023-03-25T14:11:37.767Z,65.58
2023-03-25T14:13:43.929Z,65.10
2023-03-25T14:15:55.487Z,64.60
2023-03-25T14:17:57.867Z,64.76
2023-03-25T14:20:04.521Z,63.54
2023-03-25T14:22:10.625Z,64.16
2023-03-25T14:24:16.052Z,64.31
2023-03-25T14:26:19.371Z,64.31
2023-03-25T14:28:33.856Z,63.40
2023-03-25T14:30:35.826Z,62.91
2023-03-25T14:32:39.967Z,61.80
2023-03-25T14:34:42.824Z,61.74
2023-03-25T14:37:12.019Z,60.73
2023-03-25T14:39:39.080Z,61.28
2023-03-25T14:42:00.053Z,59.98
2023-03-25T14:44:17.441Z,59.31
2023-03-25T14:46:22.582Z,59.21
2023-03-25T14:48:33.868Z,59.71
2023-03-25T14:50:36.206Z,58.79
2023-03-25T14:52:41.472Z,60.18
2023-03-25T14:54:44.082Z,59.86
2023-03-25T14:56:52.837Z,59.51
2023-03-25T14:59:00.996Z,60.10
2023-03-25T15:01:06.530Z,61.15
2023-03-25T15:03:11.606Z,61.33
2023-03-25T15:05:19.180Z,60.06
2023-03-25T15:07:41.026Z,60.51
2023-03-25T15:09:51.376Z,60.14
2023-03-25T15:11:58.794Z,59.11
2023-03-25T15:14:06.579Z,59.17
2023-03-25T15:16:18.755Z,59.50
2023-03-25T15:18:54.484Z,59.21
2023-03-25T15:21:03.346Z,59.12
2023-03-25T15:23:36.321Z,59.92
2023-03-25T15:25:38.024Z,59.61
2023-03-25T15:28:00.257Z,60.31
2023-03-25T15:30:14.357Z,60.76
2023-03-25T15:32:39.733Z,60.79
2023-03-25T15:35:18.221Z,61.15
2023-03-25T15:37:47.169Z,61.29
2023-03-25T15:40:04.726Z,61.58
2023-03-25T15:42:27.593Z,62.67
2023-03-25T15:45:05.088Z,63.57
2023-03-25T15:47:25.192Z,63.15
2023-03-25T15:49:41.619Z,63.41
2023-03-25T15:52:04.130Z,64.55
2023-03-25T15:54:28.069Z,64.76
2023-03-25T15:56:31.876Z,65.47
2023-03-25T15:58:40.026Z,65.76
2023-03-25T16:00:46.420Z,65.36
2023-03-25T16:02:55.090Z,65.14
2023-03-25T16:04:57.539Z,65.28
2023-03-25T16:07:01.661Z,65.48
2023-03-25T16:09:03.953Z,65.72
2023-03-25T16:11:14.567Z,64.99
2023-03-25T16:13:19.042Z,65.49
2023-03-25T16:15:27.280Z,65.41
2023-03-25T16:17:34.304Z,66.27
2023-03-25T16:19:40.725Z,66.54
2023-03-25T16:21:42.547Z,66.62
2023-03-25T16:23:44.253Z,66.18
2023-03-25T16:25:49.056Z,66.24
2023-03-25T16:27:55.190Z,66.61
2023-03-25T16:29:57.195Z,65.96
2023-03-25T16:32:01.140Z,66.80
2023-03-25T16:34:03.111Z,66.56
2023-03-25T16:36:14.601Z,66.58
2023-03-25T16:38:20.085Z,66.44
2023-03-25T16:40:27.275Z,65.78
2023-03-25T16:42:31.843Z,65.53
2023-03-25T16:44:34.627Z,65.96
2023-03-25T16:46:36.748Z,65.58
2023-03-25T16:48:41.567Z,65.49
2023-03-25T16:50:45.441Z,65.95
2023-03-25T16:52:50.826Z,65.59
2023-03-25T16:55:28.317Z,65.60
2023-03-25T16:57:34.204Z,66.12
2023-03-25T16:59:38.049Z,65.96
2023-03-25T17:01:42.639Z,65.80
2023-03-25T17:03:46.713Z,65.59
2023-03-25T17:05:56.117Z,65.70
2023-03-25T17:08:01.767Z,66.24
2023-03-25T17:10:04.748Z,65.70
2023-03-25T17:12:10.416Z,67.00
2023-03-25T17:14:18.688Z,66.57
2023-03-25T17:16:22.305Z,67.10
2023-03-25T17:18:28.936Z,67.02
2023-03-25T17:20:36.517Z,67.10
2023-03-25T17:22:39.697Z,67.15
2023-03-25T17:24:49.398Z,67.84
2023-03-25T17:26:56.522Z,67.85
2023-03-25T17:29:00.336Z,67.96
2023-03-25T17:31:18.091Z,67.66
2023-03-25T17:33:29.648Z,68.30
2023-03-25T17:35:32.206Z,68.91
2023-03-25T17:37:34.122Z,68.81
2023-03-25T17:39:35.806Z,68.62
2023-03-25T17:41:40.093Z,69.12
2023-03-25T17:43:44.324Z,69.16
2023-03-25T17:45:47.162Z,69.33
2023-03-25T17:47:48.911Z,69.14
2023-03-25T17:49:52.275Z,69.21
2023-03-25T17:51:53.935Z,69.68
2023-03-25T17:53:57.025Z,69.54
2023-03-25T17:56:00.643Z,69.68
2023-03-25T17:58:03.775Z,69.43
2023-03-25T18:00:08.825Z,69.73
2023-03-25T18:02:12.021Z,69.65
2023-03-25T18:04:15.491Z,69.75
2023-03-25T18:06:17.270Z,70.05
2023-03-25T18:08:20.571Z,69.56
2023-03-25T18:10:24.788Z,69.83
2023-03-25T18:12:26.429Z,69.66
2023-03-25T18:14:29.844Z,69.51
2023-03-25T18:16:31.745Z,70.15
2023-03-25T18:18:33.436Z,69.94
2023-03-25T18:20:37.598Z,69.83
2023-03-25T18:22:39.231Z,69.42
2023-03-25T18:24:40.977Z,70.09
2023-03-25T18:26:43.593Z,70.44
2023-03-25T18:28:45.867Z,69.84
2023-03-25T18:30:52.274Z,70.15
2023-03-25T18:32:54.422Z,70.39
2023-03-25T18:34:56.285Z,70.45
2023-03-25T18:36:58.094Z,70.28
2023-03-25T18:39:00.110Z,70.18
2023-03-25T18:41:02.008Z,70.42
2023-03-25T18:43:03.686Z,69.84
2023-03-25T18:45:06.159Z,70.19
2023-03-25T18:47:10.928Z,69.94
2023-03-25T18:49:14.892Z,70.87
2023-03-25T18:51:16.811Z,70.57
2023-03-25T18:53:19.533Z,70.81
2023-03-25T18:55:21.377Z,71.26
2023-03-25T18:57:22.993Z,70.91
2023-03-25T18:59:24.825Z,71.06
2023-03-25T19:01:26.692Z,70.62
2023-03-25T19:03:30.400Z,71.03
2023-03-25T19:05:32.807Z,71.63
2023-03-25T19:07:34.692Z,71.58
2023-03-25T19:09:36.540Z,71.61
2023-03-25T19:11:38.137Z,71.60
2023-03-25T19:13:39.900Z,71.96
2023-03-25T19:15:42.663Z,72.29
2023-03-25T19:17:46.018Z,72.11
2023-03-25T19:19:49.144Z,71.63
2023-03-25T19:21:50.953Z,72.02
2023-03-25T19:23:53.323Z,71.44
2023-03-25T19:25:55.385Z,71.11
2023-03-25T19:27:56.936Z,71.12
2023-03-25T19:29:59.082Z,70.06
2023-03-25T19:32:00.907Z,70.48
2023-03-25T19:34:02.570Z,70.50
2023-03-25T19:36:06.344Z,70.98
2023-03-25T19:38:08.577Z,70.78
2023-03-25T19:40:11.702Z,71.10
2023-03-25T19:42:13.768Z,70.75
2023-03-25T19:44:15.404Z,71.12
2023-03-25T19:46:17.279Z,71.10
2023-03-25T19:48:18.862Z,71.26
2023-03-25T19:50:23.239Z,71.99
2023-03-25T19:52:26.417Z,71.69
2023-03-25T19:54:28.061Z,71.60
2023-03-25T19:56:29.737Z,72.08
2023-03-25T19:58:31.582Z,73.05
2023-03-25T20:00:33.438Z,72.04
2023-03-25T20:02:35.357Z,72.30
2023-03-25T20:04:37.621Z,72.24
2023-03-25T20:06:39.337Z,72.04
2023-03-25T20:08:42.536Z,72.24
2023-03-25T20:10:44.382Z,72.81
2023-03-25T20:12:46.512Z,72.51
2023-03-25T20:14:48.160Z,72.49
2023-03-25T20:16:50.150Z,72.78
2023-03-25T20:18:51.791Z,72.53
2023-03-25T20:20:53.428Z,72.35
2023-03-25T20:22:55.552Z,72.82
2023-03-25T20:24:58.692Z,72.68
2023-03-25T20:27:00.356Z,72.42
2023-03-25T20:29:02.205Z,72.56
2023-03-25T20:31:13.950Z,71.78
2023-03-25T20:33:15.559Z,72.55
2023-03-25T20:35:19.171Z,72.81
2023-03-25T20:37:20.792Z,72.98
2023-03-25T20:39:22.486Z,72.84
2023-03-25T20:41:26.009Z,73.50
2023-03-25T20:43:27.772Z,73.71
2023-03-25T20:45:29.749Z,72.91
2023-03-25T20:47:31.769Z,73.71
2023-03-25T20:49:33.399Z,73.18
2023-03-25T20:51:35.246Z,73.53
2023-03-25T20:53:37.066Z,73.92
2023-03-25T20:55:38.708Z,74.26
2023-03-25T20:57:43.550Z,73.73
2023-03-25T20:59:45.231Z,74.05
2023-03-25T21:01:48.427Z,73.88
2023-03-25T21:03:50.341Z,73.82
2023-03-25T21:05:56.300Z,74.14
2023-03-25T21:07:58.166Z,74.01
2023-03-25T21:10:00.128Z,73.92
2023-03-25T21:12:01.861Z,74.24
2023-03-25T21:14:05.560Z,74.13
2023-03-25T21:16:08.138Z,73.85
2023-03-25T21:18:10.415Z,73.86
2023-03-25T21:20:12.588Z,74.04
2023-03-25T21:22:14.410Z,73.68
2023-03-25T21:24:16.051Z,74.04
2023-03-25T21:26:18.111Z,74.04
2023-03-25T21:28:19.969Z,74.50
2023-03-25T21:30:23.360Z,74.19
2023-03-25T21:32:25.015Z,74.59
2023-03-25T21:34:26.693Z,74.22
2023-03-25T21:36:29.744Z,73.98
2023-03-25T21:38:31.604Z,74.29
2023-03-25T21:40:39.898Z,74.19
2023-03-25T21:42:43.227Z,74.02
2023-03-25T21:44:44.842Z,73.65
2023-03-25T21:46:48.735Z,73.74
2023-03-25T21:48:56.757Z,73.28
2023-03-25T21:50:58.433Z,73.80
2023-03-25T21:53:00.774Z,73.62
2023-03-25T21:55:02.644Z,73.75
2023-03-25T21:57:04.417Z,73.66
2023-03-25T21:59:06.555Z,73.14
2023-03-25T22:01:10.915Z,73.78
2023-03-25T22:03:14.143Z,73.60
2023-03-25T22:05:17.083Z,73.38
2023-03-25T22:07:18.697Z,73.70
2023-03-25T22:09:20.447Z,73.62
2023-03-25T22:11:24.357Z,73.53
2023-03-25T22:13:26.251Z,73.63
2023-03-25T22:15:28.018Z,73.77
2023-03-25T22:17:29.923Z,73.38
2023-03-25T22:19:33.628Z,73.92
2023-03-25T22:21:36.493Z,73.77
2023-03-25T22:23:38.953Z,74.39
2023-03-25T22:25:40.790Z,74.17
2023-03-25T22:27:42.688Z,74.46
2023-03-25T22:29:44.672Z,73.80
2023-03-25T22:31:46.432Z,74.04
2023-03-25T22:33:48.336Z,74.05
2023-03-25T22:35:51.484Z,74.17
2023-03-25T22:37:53.115Z,74.06
2023-03-25T22:39:54.996Z,74.48
2023-03-25T22:41:56.625Z,74.72
2023-03-25T22:43:58.945Z,74.44
2023-03-25T22:46:02.809Z,75.32
2023-03-25T22:48:05.032Z,75.16
2023-03-25T22:50:07.810Z,75.08
2023-03-25T22:52:10.904Z,74.81
2023-03-25T22:54:12.554Z,74.75
2023-03-25T22:56:14.538Z,75.22
2023-03-25T22:58:16.073Z,75.27
2023-03-25T23:00:17.885Z,75.07
2023-03-25T23:02:19.740Z,75.46
2023-03-25T23:04:21.424Z,75.49
2023-03-25T23:06:24.863Z,75.57
2023-03-25T23:08:30.133Z,75.08
2023-03-25T23:10:32.091Z,76.05
2023-03-25T23:12:33.746Z,75.85
2023-03-25T23:14:35.533Z,75.37
2023-03-25T23:16:37.731Z,76.06
2023-03-25T23:18:39.730Z,76.25
2023-03-25T23:20:41.814Z,75.96
2023-03-25T23:22:43.443Z,75.98
2023-03-25T23:24:46.796Z,76.18
2023-03-25T23:26:48.472Z,76.34
2023-03-25T23:28:51.054Z,76.59
2023-03-25T23:30:52.922Z,76.03
2023-03-25T23:32:54.968Z,76.24
2023-03-25T23:34:56.796Z,76.36
2023-03-25T23:36:58.386Z,76.28
2023-03-25T23:39:00.437Z,75.90
2023-03-25T23:41:05.946Z,75.88
2023-03-25T23:43:07.502Z,76.19
2023-03-25T23:45:10.521Z,76.29
2023-03-25T23:47:12.568Z,76.42
2023-03-25T23:49:14.646Z,76.23
2023-03-25T23:51:19.569Z,76.18
2023-03-25T23:53:21.717Z,76.46
2023-03-25T23:55:23.594Z,76.49
2023-03-25T23:57:27.285Z,76.69
2023-03-25T23:59:29.079Z,76.02
